Accueil
METAR-TAF:

METAR-TAF

Aéroports :

Base aérienne

Landivisiau, France

latitude: 48-31N, longitude: 004-09W, altitude: 106 m

Observation

Le bulletin a été fait il y a 33 minutes, à 02:30 UTC
Vent 4 kt de ouest
Température 12°C
Humidité 94%
Pression 1021 hPa
Visibilité: 0900 m
bancs de brouillard

METAR: LFRJ 170230Z AUTO 28004KT 9999 0900 R26/P2000 R08/P2000 BCFG NSC 12/11 Q1021

Heure: 05:03 (03:03 UTC)


TAF: absent

Observations et prévisions météorologiques de plus de 4000 aéroports (messages METAR et TAF).

Les stations disponibles sont représentées par des disques jaunes et rouges sur la carte.

Passer la souris dessus pour voir le nom de la station.

Cliquer dessus pour voir les observations et prévisions météorologiques.

Pour changer de carte: cliquez sur les boutons verts avec une croix noire pour zoomer, sur le bouton vert avec un tiret pour effectuer un zoom arrière, ou sur les flèches vertes pour les cartes adjacentes.


METAR-TAF: